Maples, Indiana
Current Conditions -  °F | °C
As of 3:54 PM on Friday 19 Dec 2014 (Local Time) from KFWA Reporting Station
Broken Clouds Broken Clouds  
Wind Chill: 27°   Ceiling: 3500
Heat Index: 32°   Visibility: 10mi
Dew Point: 22°   Wind: 5mph
Humidity: 66%   Direction: 230°SW
Pressure: 30.26"   Gusts: NA
Location:  41.0028°N, 85.0396°W
Report Text: KFWA 192054Z 23004KT 10SM FEW028 BKN035 00/M06 A3026 RMK AO2 SLP255 BKN V OVC T00001056 55001
Loading
Personal Weather Stations






























Interactive Weather Map New forecast layout! Learn more

10-Day Weather Forecast

Advertisements
Track Severe Weather on mobile